Time;durP1;ratioP1;P1;durP2;ratioP2;P2;SDS_P1;SDS_P2;PMS_P1;PMS_P2;Temp;Humidity;BMP_temperature;BMP_pressure;BME280_temperature;BME280_humidity;BME280_pressure;Samples;Min_cycle;Max_cycle;Signal;HPM_P1;HPM_P2
2022/03/15 00:00:28;;;;;;;2.00;1.50;;;20.80;48.30;;;;;;4958741;28;20262;-72
2022/03/15 00:02:56;;;;;;;2.20;1.50;;;20.80;48.30;;;;;;4974820;28;20181;-73
2022/03/15 00:05:23;;;;;;;2.55;1.58;;;20.70;48.30;;;;;;4993971;28;20192;-73
2022/03/15 00:07:49;;;;;;;2.30;1.35;;;20.80;48.30;;;;;;4962718;28;20250;-73
2022/03/15 00:10:16;;;;;;;3.08;1.50;;;20.70;48.20;;;;;;4978648;28;20236;-73
2022/03/15 00:12:43;;;;;;;1.67;1.33;;;20.70;48.20;;;;;;4978481;28;20665;-74
2022/03/15 00:15:11;;;;;;;1.65;1.27;;;20.70;48.20;;;;;;4962282;28;20225;-74
2022/03/15 00:17:42;;;;;;;1.63;1.27;;;20.80;48.30;;;;;;4978655;28;20235;-74
2022/03/15 00:20:14;;;;;;;2.58;1.30;;;20.70;48.20;;;;;;4995936;28;20275;-74
2022/03/15 00:22:41;;;;;;;1.40;1.30;;;20.70;48.20;;;;;;4995915;28;20274;-74
2022/03/15 00:25:16;;;;;;;1.23;1.10;;;20.80;48.30;;;;;;4978162;28;20188;-73
2022/03/15 00:27:50;;;;;;;1.92;1.40;;;20.70;48.20;;;;;;4978358;28;20196;-73
2022/03/15 00:30:17;;;;;;;1.77;1.35;;;20.70;48.20;;;;;;4994827;28;20215;-73
2022/03/15 00:32:44;;;;;;;3.22;1.75;;;20.70;48.10;;;;;;4994664;28;20208;-73
2022/03/15 00:35:17;;;;;;;3.55;1.50;;;20.70;48.10;;;;;;4994079;28;20184;-73
2022/03/15 00:37:48;;;;;;;2.20;1.35;;;20.70;48.10;;;;;;4978392;28;20197;-73
2022/03/15 00:40:16;;;;;;;2.33;1.50;;;20.70;48.10;;;;;;4994436;28;20231;-74
2022/03/15 00:43:01;;;;;;;1.95;1.50;;;20.70;48.00;;;;;;4978176;28;20263;-73
2022/03/15 00:45:30;;;;;;;1.63;1.52;;;20.70;48.10;;;;;;5015783;22;20241;-67
2022/03/15 00:47:58;;;;;;;2.08;1.33;;;20.70;48.10;;;;;;4977024;28;20197;-68
2022/03/15 00:50:28;;;;;;;2.45;1.40;;;20.70;48.00;;;;;;4959502;28;20321;-68
2022/03/15 00:52:54;;;;;;;1.63;1.20;;;20.70;48.00;;;;;;4959708;28;20185;-68
2022/03/15 00:55:20;;;;;;;2.85;1.30;;;20.70;48.00;;;;;;4964748;28;20205;-68
2022/03/15 00:57:47;;;;;;;2.42;1.48;;;20.70;48.00;;;;;;4975296;28;20186;-68
2022/03/15 01:00:16;;;;;;;1.98;1.55;;;20.70;48.00;;;;;;4975167;28;20687;-68
2022/03/15 01:02:42;;;;;;;1.67;1.42;;;20.70;48.00;;;;;;4959435;28;20220;-68
2022/03/15 01:05:08;;;;;;;1.30;1.20;;;20.70;48.00;;;;;;4974947;28;20721;-68
2022/03/15 01:07:37;;;;;;;2.15;1.58;;;20.70;48.00;;;;;;4976350;28;20647;-68
2022/03/15 01:10:04;;;;;;;2.65;1.60;;;20.70;47.90;;;;;;4958982;28;20201;-68
2022/03/15 01:12:29;;;;;;;1.67;1.30;;;20.70;47.90;;;;;;4991178;28;20194;-68
2022/03/15 01:14:55;;;;;;;3.30;1.70;;;20.70;47.90;;;;;;4958675;28;20205;-68
2022/03/15 01:17:21;;;;;;;3.05;1.48;;;20.70;47.90;;;;;;4974096;28;20232;-68
2022/03/15 01:19:47;;;;;;;1.88;1.27;;;20.70;47.90;;;;;;4974816;28;20212;-68
2022/03/15 01:22:13;;;;;;;1.65;1.45;;;20.70;47.80;;;;;;4975165;28;20193;-68
2022/03/15 01:24:38;;;;;;;1.98;1.45;;;20.70;47.90;;;;;;4958784;28;20198;-67
2022/03/15 01:27:05;;;;;;;1.95;1.50;;;20.70;47.80;;;;;;4974887;28;20188;-68
2022/03/15 01:29:32;;;;;;;1.60;1.42;;;20.70;47.80;;;;;;4991397;28;20216;-68
2022/03/15 01:31:59;;;;;;;2.42;1.23;;;20.70;47.90;;;;;;4975813;28;20256;-68
2022/03/15 01:34:27;;;;;;;1.55;1.45;;;20.70;47.80;;;;;;4990791;28;20264;-68
2022/03/15 01:36:56;;;;;;;1.95;1.30;;;20.70;47.80;;;;;;4959330;28;20241;-68
2022/03/15 01:39:22;;;;;;;1.75;1.42;;;20.70;47.80;;;;;;4974357;28;20671;-68
2022/03/15 01:41:47;;;;;;;1.20;1.10;;;20.70;47.80;;;;;;4974542;28;20190;-68
2022/03/15 01:44:19;;;;;;;1.27;1.17;;;20.70;47.80;;;;;;4990737;28;20182;-68
2022/03/15 01:46:50;;;;;;;1.65;1.10;;;20.70;47.80;;;;;;4974444;28;20181;-67
2022/03/15 01:49:21;;;;;;;1.40;1.23;;;20.70;47.70;;;;;;4975584;28;20170;-68
2022/03/15 01:51:49;;;;;;;1.38;1.17;;;20.70;47.70;;;;;;4974212;28;20670;-68
2022/03/15 01:54:16;;;;;;;1.90;1.40;;;20.70;47.70;;;;;;4974434;28;20185;-68
2022/03/15 01:56:43;;;;;;;1.58;1.35;;;20.70;47.70;;;;;;4974130;28;20651;-68
2022/03/15 01:59:12;;;;;;;1.35;1.20;;;20.70;47.70;;;;;;4958193;28;20240;-68
2022/03/15 02:01:41;;;;;;;1.45;1.35;;;20.70;47.70;;;;;;4974356;28;20213;-68
2022/03/15 02:04:11;;;;;;;1.60;1.40;;;20.70;47.70;;;;;;4974137;28;20182;-68
2022/03/15 02:06:41;;;;;;;1.45;1.35;;;20.70;47.70;;;;;;4973874;28;20212;-68
2022/03/15 02:09:15;;;;;;;1.65;1.45;;;20.70;47.70;;;;;;4975327;28;20173;-68
2022/03/15 02:11:44;;;;;;;1.65;1.30;;;20.70;47.60;;;;;;4990165;28;20741;-68
2022/03/15 02:14:10;;;;;;;1.63;1.25;;;20.60;47.60;;;;;;4957762;28;20222;-68
2022/03/15 02:16:36;;;;;;;1.48;1.02;;;20.70;47.60;;;;;;4957552;28;20248;-68
2022/03/15 02:19:04;;;;;;;1.30;1.20;;;20.60;47.60;;;;;;4974030;28;20232;-68
2022/03/15 02:21:31;;;;;;;1.40;1.30;;;20.70;47.60;;;;;;4990154;28;20205;-68
2022/03/15 02:23:57;;;;;;;1.75;1.30;;;20.70;47.60;;;;;;4973642;28;20186;-68
2022/03/15 02:26:23;;;;;;;1.90;1.48;;;20.60;47.50;;;;;;4974640;28;20210;-67
2022/03/15 02:28:49;;;;;;;2.22;1.52;;;20.60;47.50;;;;;;4973953;28;20225;-68
2022/03/15 02:31:15;;;;;;;1.27;1.17;;;20.70;47.60;;;;;;4974744;28;20186;-68
2022/03/15 02:33:41;;;;;;;1.05;0.95;;;20.70;47.60;;;;;;4973630;28;20244;-68
2022/03/15 02:36:07;;;;;;;2.08;1.25;;;20.60;47.50;;;;;;4957473;28;20213;-68
2022/03/15 02:38:33;;;;;;;1.27;1.15;;;20.70;47.60;;;;;;4974667;28;20546;-68
2022/03/15 02:40:59;;;;;;;1.38;1.20;;;20.60;47.50;;;;;;4973582;28;20231;-68
2022/03/15 02:43:25;;;;;;;1.23;1.05;;;20.60;47.50;;;;;;4973389;28;20196;-68
2022/03/15 02:45:51;;;;;;;1.63;1.20;;;20.60;47.50;;;;;;4989300;28;20209;-68
2022/03/15 02:48:16;;;;;;;1.92;1.40;;;20.60;47.50;;;;;;4973329;28;20247;-68
2022/03/15 02:50:42;;;;;;;2.72;1.80;;;20.60;47.50;;;;;;4973187;28;20272;-68
2022/03/15 02:53:08;;;;;;;1.48;1.38;;;20.60;47.50;;;;;;4973145;28;20193;-68
2022/03/15 02:55:34;;;;;;;1.67;1.58;;;20.60;47.50;;;;;;4957064;28;20210;-68
2022/03/15 02:58:01;;;;;;;1.73;1.38;;;20.60;47.40;;;;;;4957047;28;20675;-68
2022/03/15 03:00:27;;;;;;;1.50;1.40;;;20.60;47.40;;;;;;4973129;28;20228;-68
2022/03/15 03:02:57;;;;;;;1.55;1.45;;;20.60;47.50;;;;;;4972748;28;20196;-68
2022/03/15 03:05:23;;;;;;;2.33;1.58;;;20.60;47.40;;;;;;4972828;28;20217;-68
2022/03/15 03:07:49;;;;;;;1.95;1.42;;;20.60;47.40;;;;;;4973132;28;20216;-68
2022/03/15 03:10:16;;;;;;;1.48;1.30;;;20.60;47.40;;;;;;4989083;28;20237;-68
2022/03/15 03:12:48;;;;;;;1.60;1.30;;;20.60;47.40;;;;;;4987494;28;20209;-68
2022/03/15 03:15:15;;;;;;;1.48;1.15;;;20.60;47.40;;;;;;4972441;28;20725;-68
2022/03/15 03:17:41;;;;;;;1.23;1.10;;;20.60;47.40;;;;;;4972662;28;20193;-68
2022/03/15 03:20:13;;;;;;;1.38;1.02;;;20.60;48.00;;;;;;4972986;28;20213;-68
2022/03/15 03:22:41;;;;;;;2.17;1.08;;;20.60;47.40;;;;;;4972672;28;20186;-68
2022/03/15 03:25:08;;;;;;;1.45;1.15;;;20.60;47.30;;;;;;4956737;28;20260;-68
2022/03/15 03:27:34;;;;;;;1.17;1.08;;;20.60;47.40;;;;;;4972813;28;20185;-68
2022/03/15 03:30:00;;;;;;;1.23;1.13;;;20.60;47.30;;;;;;4972427;28;20193;-68
2022/03/15 03:32:27;;;;;;;1.80;1.33;;;20.60;47.40;;;;;;4972517;28;20713;-68
2022/03/15 03:34:54;;;;;;;1.48;1.30;;;20.60;47.40;;;;;;4956178;28;20213;-68
2022/03/15 03:37:20;;;;;;;1.50;1.30;;;20.60;47.30;;;;;;4972642;28;20190;-68
2022/03/15 03:39:47;;;;;;;1.60;1.40;;;20.60;47.30;;;;;;4971982;28;20382;-68
2022/03/15 03:42:14;;;;;;;1.70;1.60;;;20.60;47.40;;;;;;4972368;28;20191;-68
2022/03/15 03:44:43;;;;;;;1.70;1.60;;;20.60;47.40;;;;;;4956021;28;20580;-68
2022/03/15 03:47:10;;;;;;;1.63;1.52;;;20.60;47.40;;;;;;4972371;28;20252;-68
2022/03/15 03:49:38;;;;;;;1.67;1.50;;;20.60;47.30;;;;;;4973535;28;20193;-67
2022/03/15 03:52:05;;;;;;;1.45;1.30;;;20.60;47.30;;;;;;4972246;28;20232;-67
2022/03/15 03:54:34;;;;;;;1.52;1.30;;;20.60;48.00;;;;;;4972075;28;20189;-67
2022/03/15 03:57:00;;;;;;;2.22;1.30;;;20.70;48.50;;;;;;4973397;28;20166;-68
2022/03/15 03:59:26;;;;;;;1.20;1.10;;;20.70;48.40;;;;;;4972468;28;20225;-68
2022/03/15 04:01:53;;;;;;;1.13;1.08;;;20.60;48.20;;;;;;4972233;28;20197;-67
2022/03/15 04:04:18;;;;;;;1.25;1.15;;;20.50;48.10;;;;;;4971984;28;20197;-67
2022/03/15 04:06:44;;;;;;;1.40;1.30;;;20.50;48.20;;;;;;4972034;28;20181;-68
2022/03/15 04:09:10;;;;;;;1.40;1.15;;;20.50;48.10;;;;;;4972151;28;20186;-68
2022/03/15 04:11:40;;;;;;;1.40;1.30;;;20.50;48.00;;;;;;4972380;28;20232;-68
2022/03/15 04:14:08;;;;;;;1.40;1.30;;;20.40;47.90;;;;;;4972136;28;20196;-68
2022/03/15 04:16:34;;;;;;;1.50;1.40;;;20.40;47.80;;;;;;4972049;28;20219;-68
2022/03/15 04:19:00;;;;;;;1.50;1.40;;;20.50;47.90;;;;;;4978522;28;20280;-68
2022/03/15 04:21:26;;;;;;;1.98;1.40;;;20.40;47.70;;;;;;4991600;28;20213;-68
2022/03/15 04:23:56;;;;;;;1.77;1.50;;;20.40;47.60;;;;;;4975202;28;20185;-68
2022/03/15 04:26:24;;;;;;;1.65;1.55;;;20.40;47.60;;;;;;4991182;28;20204;-68
2022/03/15 04:28:51;;;;;;;2.08;1.88;;;20.40;47.60;;;;;;4991587;28;20189;-68
2022/03/15 04:31:17;;;;;;;1.85;1.75;;;20.40;47.50;;;;;;4992569;28;20276;-68
2022/03/15 04:33:42;;;;;;;2.15;1.90;;;20.40;47.50;;;;;;4991465;28;20173;-68
2022/03/15 04:36:09;;;;;;;1.80;1.70;;;20.40;47.40;;;;;;4992222;28;20208;-68
2022/03/15 04:38:36;;;;;;;2.25;1.75;;;20.40;47.40;;;;;;4991542;28;20195;-68
2022/03/15 04:41:05;;;;;;;1.90;1.73;;;20.40;47.40;;;;;;4991327;28;20240;-68
2022/03/15 04:43:32;;;;;;;1.70;1.60;;;20.40;47.30;;;;;;4991351;28;20184;-68
2022/03/15 04:45:58;;;;;;;1.77;1.67;;;20.40;47.20;;;;;;4974921;28;20217;-68
2022/03/15 04:48:24;;;;;;;1.58;1.48;;;20.40;47.20;;;;;;4975045;28;20185;-68
2022/03/15 04:50:51;;;;;;;1.95;1.80;;;20.40;47.20;;;;;;4975549;28;20185;-68
2022/03/15 04:53:18;;;;;;;1.40;1.30;;;20.40;47.20;;;;;;4978979;28;20243;-68
2022/03/15 04:55:44;;;;;;;1.50;1.40;;;20.40;47.10;;;;;;4978383;28;20205;-68
2022/03/15 04:58:09;;;;;;;1.58;1.48;;;20.30;47.00;;;;;;4995220;28;20215;-68
2022/03/15 05:00:35;;;;;;;1.70;1.60;;;20.30;47.00;;;;;;4995956;28;20213;-68
2022/03/15 05:03:02;;;;;;;1.70;1.55;;;20.40;47.00;;;;;;4978871;28;20609;-68
2022/03/15 05:05:27;;;;;;;1.70;1.38;;;20.30;46.90;;;;;;4995664;28;20347;-68
2022/03/15 05:07:53;;;;;;;1.73;1.38;;;20.30;46.90;;;;;;4994674;28;20189;-68
2022/03/15 05:13:03;;;;;;;1.80;1.70;;;20.30;46.70;;;;;;4994492;28;20213;-68
2022/03/15 05:15:29;;;;;;;1.75;1.30;;;20.30;46.80;;;;;;4978029;28;20217;-68
2022/03/15 05:17:55;;;;;;;1.67;1.58;;;20.30;46.80;;;;;;4995727;28;20668;-68
2022/03/15 05:20:21;;;;;;;1.85;1.75;;;20.30;46.70;;;;;;4994684;28;20224;-68
2022/03/15 05:22:46;;;;;;;2.20;1.77;;;20.30;46.70;;;;;;4994326;28;20181;-68
2022/03/15 05:25:13;;;;;;;1.52;1.42;;;20.30;46.80;;;;;;4994118;28;20296;-68
2022/03/15 05:27:41;;;;;;;2.30;1.63;;;20.30;46.80;;;;;;4994422;28;20177;-67
2022/03/15 05:30:09;;;;;;;2.10;1.77;;;20.30;46.70;;;;;;4994153;28;20184;-68
2022/03/15 05:32:35;;;;;;;2.42;1.77;;;20.30;46.70;;;;;;4994209;28;20211;-67
2022/03/15 05:35:03;;;;;;;1.50;1.40;;;20.30;46.80;;;;;;4995195;28;20205;-67
2022/03/15 05:37:29;;;;;;;1.30;1.20;;;20.30;46.70;;;;;;4995299;28;20193;-68
2022/03/15 05:39:55;;;;;;;2.03;1.38;;;20.30;46.70;;;;;;4977784;28;20224;-68
2022/03/15 05:42:21;;;;;;;2.10;1.55;;;20.20;46.60;;;;;;4977875;28;20189;-68
2022/03/15 05:44:47;;;;;;;1.33;1.23;;;20.30;46.70;;;;;;4993617;28;20274;-68
2022/03/15 05:47:14;;;;;;;3.05;1.50;;;20.30;46.60;;;;;;4995140;28;20185;-68
2022/03/15 05:49:39;;;;;;;2.35;1.65;;;20.30;46.60;;;;;;4995099;28;20176;-68
2022/03/15 05:52:07;;;;;;;1.60;1.50;;;20.30;46.60;;;;;;4993813;28;20744;-68
2022/03/15 05:54:34;;;;;;;1.38;1.27;;;20.20;46.50;;;;;;4977708;28;20192;-68
2022/03/15 05:57:01;;;;;;;1.30;1.20;;;20.30;46.60;;;;;;4993717;28;20180;-68
2022/03/15 05:59:27;;;;;;;1.35;1.25;;;20.20;46.50;;;;;;4977759;28;20181;-68
2022/03/15 06:01:53;;;;;;;1.40;1.30;;;20.20;46.50;;;;;;4993378;28;20191;-68
2022/03/15 06:04:19;;;;;;;1.52;1.40;;;20.30;46.60;;;;;;4993159;28;20195;-68
2022/03/15 06:06:45;;;;;;;1.80;1.70;;;20.20;46.50;;;;;;4958218;28;20196;-68
2022/03/15 06:09:11;;;;;;;2.78;1.55;;;20.20;46.40;;;;;;4974469;28;20178;-68
2022/03/15 06:11:39;;;;;;;1.98;1.42;;;20.20;46.40;;;;;;4974252;28;20321;-68
2022/03/15 06:14:06;;;;;;;2.10;1.83;;;20.20;46.40;;;;;;4973969;28;20240;-68
2022/03/15 06:16:32;;;;;;;2.15;1.40;;;20.20;46.40;;;;;;4973577;28;20626;-68
2022/03/15 06:18:58;;;;;;;1.50;1.40;;;20.20;46.30;;;;;;4973732;28;20193;-68
2022/03/15 06:21:23;;;;;;;1.67;1.50;;;20.30;46.40;;;;;;4974964;28;20214;-67
2022/03/15 06:23:49;;;;;;;1.98;1.70;;;20.30;46.40;;;;;;4973937;28;20184;-68
2022/03/15 06:26:18;;;;;;;1.83;1.60;;;20.30;46.30;;;;;;4973571;28;20216;-68
2022/03/15 06:28:44;;;;;;;1.63;1.52;;;20.30;46.30;;;;;;4973767;28;20665;-68
2022/03/15 06:31:10;;;;;;;1.65;1.40;;;20.20;46.20;;;;;;4973749;28;20659;-68
2022/03/15 06:33:35;;;;;;;1.50;1.38;;;20.20;46.20;;;;;;4973510;28;20185;-68
2022/03/15 06:36:03;;;;;;;1.70;1.60;;;20.20;46.20;;;;;;4974796;28;20209;-68
2022/03/15 06:38:29;;;;;;;1.52;1.40;;;20.20;46.20;;;;;;4958414;28;20198;-68
2022/03/15 06:40:56;;;;;;;1.65;1.55;;;20.30;46.30;;;;;;4954123;29;20219;-68
2022/03/15 06:43:22;;;;;;;1.40;1.30;;;20.20;46.20;;;;;;4955283;28;20186;-68
2022/03/15 06:45:48;;;;;;;2.05;1.25;;;20.20;46.20;;;;;;4990355;23;20307;-64
2022/03/15 06:48:15;;;;;;;1.70;1.58;;;20.30;46.30;;;;;;4975662;28;20308;-66
2022/03/15 06:50:41;;;;;;;2.92;1.42;;;20.30;46.20;;;;;;4974044;28;20705;-67
2022/03/15 06:53:07;;;;;;;2.47;1.92;;;20.20;46.10;;;;;;4972508;28;20207;-66
2022/03/15 06:55:34;;;;;;;1.20;1.10;;;20.20;46.10;;;;;;4987943;28;20756;-66
2022/03/15 06:58:00;;;;;;;1.50;1.30;;;20.20;46.10;;;;;;4976268;28;20189;-66
2022/03/15 07:00:26;;;;;;;2.60;1.65;;;20.20;46.10;;;;;;4960588;28;20265;-66
2022/03/15 07:02:52;;;;;;;1.40;1.30;;;20.20;46.10;;;;;;4990264;28;20662;-67
2022/03/15 07:05:18;;;;;;;1.70;1.60;;;20.20;46.10;;;;;;4991336;28;20254;-66
2022/03/15 07:07:44;;;;;;;1.58;1.42;;;20.20;46.10;;;;;;4995881;28;20195;-67
2022/03/15 07:10:11;;;;;;;1.95;1.55;;;20.20;46.00;;;;;;5002528;28;20185;-66
2022/03/15 07:12:38;;;;;;;2.60;1.50;;;20.20;46.00;;;;;;4998856;28;20247;-67
2022/03/15 07:15:05;;;;;;;1.90;1.58;;;20.20;46.00;;;;;;4996942;28;20220;-66
2022/03/15 07:17:31;;;;;;;2.35;1.88;;;20.20;46.00;;;;;;4975978;28;20185;-66
2022/03/15 07:19:59;;;;;;;1.77;1.67;;;20.20;45.90;;;;;;4976038;28;20343;-66
2022/03/15 07:22:26;;;;;;;2.65;1.80;;;20.20;46.00;;;;;;4975709;28;20196;-67
2022/03/15 07:24:52;;;;;;;1.60;1.50;;;20.20;46.00;;;;;;4977013;28;20188;-66
2022/03/15 07:27:21;;;;;;;1.88;1.67;;;20.20;46.00;;;;;;4975729;28;20640;-66
2022/03/15 07:29:48;;;;;;;3.50;1.42;;;20.20;46.00;;;;;;4975236;28;20762;-67
2022/03/15 07:32:14;;;;;;;1.40;1.27;;;20.20;45.80;;;;;;4991512;28;20189;-66
2022/03/15 07:34:40;;;;;;;1.77;1.50;;;20.20;45.90;;;;;;4991015;28;20195;-64
2022/03/15 07:37:06;;;;;;;2.17;1.30;;;20.20;45.90;;;;;;4991712;28;20207;-66
2022/03/15 07:39:31;;;;;;;1.25;1.13;;;20.20;45.90;;;;;;4992186;28;20239;-66
2022/03/15 07:41:57;;;;;;;1.42;1.33;;;20.20;45.90;;;;;;4975509;28;20197;-66
2022/03/15 07:44:23;;;;;;;1.42;1.30;;;20.20;45.90;;;;;;4991869;28;20188;-66
2022/03/15 07:46:49;;;;;;;2.17;1.35;;;20.20;45.90;;;;;;4991632;28;20212;-66
2022/03/15 07:49:20;;;;;;;1.25;1.15;;;20.20;45.80;;;;;;4991952;28;20189;-66
2022/03/15 07:51:48;;;;;;;1.60;1.50;;;20.30;45.90;;;;;;4988972;28;20288;-66
2022/03/15 07:54:14;;;;;;;2.00;1.50;;;20.30;45.90;;;;;;4992320;28;20224;-66
2022/03/15 07:56:41;;;;;;;1.60;1.48;;;20.20;45.80;;;;;;4975320;28;20211;-66
2022/03/15 07:59:08;;;;;;;1.40;1.30;;;20.20;45.80;;;;;;4959480;28;20192;-66
2022/03/15 08:01:34;;;;;;;1.60;1.50;;;20.20;45.80;;;;;;4975221;28;20244;-64
2022/03/15 08:04:01;;;;;;;1.90;1.75;;;20.20;45.80;;;;;;4978348;28;20251;-66
2022/03/15 08:06:27;;;;;;;1.70;1.40;;;20.20;45.80;;;;;;4977044;28;20204;-66
2022/03/15 08:08:57;;;;;;;1.55;1.45;;;20.20;45.80;;;;;;4975731;28;20181;-66
2022/03/15 08:11:24;;;;;;;1.63;1.52;;;20.20;45.80;;;;;;4975565;28;20199;-66
2022/03/15 08:13:53;;;;;;;1.30;1.20;;;20.20;45.80;;;;;;4992625;28;20192;-66
2022/03/15 08:16:21;;;;;;;1.98;1.42;;;20.20;45.80;;;;;;4974918;28;20211;-66
2022/03/15 08:18:51;;;;;;;1.40;1.30;;;20.30;45.80;;;;;;4961225;28;20242;-66
2022/03/15 08:21:18;;;;;;;2.13;1.40;;;20.30;45.80;;;;;;4969447;28;20206;-66
2022/03/15 08:23:46;;;;;;;1.73;1.30;;;20.30;46.00;;;;;;4959735;28;20184;-66
2022/03/15 08:26:12;;;;;;;1.63;1.23;;;20.20;45.80;;;;;;4961500;28;20244;-66
2022/03/15 08:28:38;;;;;;;1.67;1.55;;;20.20;45.80;;;;;;4963086;28;20256;-66
2022/03/15 08:31:04;;;;;;;1.67;1.40;;;20.20;45.80;;;;;;4962882;28;20189;-66
2022/03/15 08:33:30;;;;;;;1.05;1.02;;;20.30;46.00;;;;;;4978874;28;20192;-66
2022/03/15 08:35:56;;;;;;;1.30;1.17;;;20.30;46.00;;;;;;4994932;28;20308;-66
2022/03/15 08:38:22;;;;;;;1.70;1.20;;;20.30;45.90;;;;;;4986433;28;20279;-66
2022/03/15 08:40:49;;;;;;;1.77;1.45;;;20.30;45.90;;;;;;4963010;28;20224;-66
2022/03/15 08:43:16;;;;;;;1.48;1.38;;;20.30;45.90;;;;;;4988576;28;20192;-65
2022/03/15 08:45:42;;;;;;;1.27;1.17;;;20.30;46.00;;;;;;4991817;28;20207;-67
2022/03/15 08:48:08;;;;;;;1.58;1.20;;;20.30;46.00;;;;;;5016031;28;20188;-66
2022/03/15 08:50:34;;;;;;;1.45;1.25;;;20.30;46.00;;;;;;4965840;28;20271;-65
2022/03/15 08:53:01;;;;;;;1.08;1.08;;;20.20;45.90;;;;;;4975852;28;20193;-66
2022/03/15 08:55:28;;;;;;;1.33;1.23;;;20.20;45.90;;;;;;4992628;28;20212;-66
2022/03/15 08:57:54;;;;;;;1.10;1.00;;;20.30;46.00;;;;;;4978947;28;20189;-66
2022/03/15 09:00:20;;;;;;;1.58;1.27;;;20.30;46.00;;;;;;4994667;28;20207;-65
2022/03/15 09:02:46;;;;;;;1.38;0.88;;;20.30;46.00;;;;;;4995841;28;20177;-66
2022/03/15 09:05:12;;;;;;;1.17;1.10;;;20.30;46.00;;;;;;4978266;28;20219;-66
2022/03/15 09:07:39;;;;;;;1.50;1.40;;;20.30;46.00;;;;;;4962175;28;20181;-65
2022/03/15 09:10:06;;;;;;;3.22;1.40;;;20.30;46.00;;;;;;4978251;28;20189;-66
2022/03/15 09:12:32;;;;;;;1.92;1.10;;;20.30;46.40;;;;;;4962274;28;20562;-65
2022/03/15 09:14:58;;;;;;;1.20;1.00;;;20.30;46.00;;;;;;4980270;28;20282;-68
2022/03/15 09:17:24;;;;;;;1.33;1.13;;;20.30;46.00;;;;;;4981323;28;20248;-66
2022/03/15 09:19:52;;;;;;;1.05;0.95;;;20.30;46.00;;;;;;4973266;28;20266;-66
2022/03/15 09:22:20;;;;;;;1.42;1.02;;;20.30;46.00;;;;;;4997418;28;20199;-66
2022/03/15 09:24:46;;;;;;;1.95;0.90;;;20.30;46.00;;;;;;4965671;28;20197;-63
2022/03/15 09:27:12;;;;;;;1.15;1.00;;;20.30;46.10;;;;;;4978103;28;20185;-65
2022/03/15 09:29:39;;;;;;;0.95;0.95;;;20.30;46.10;;;;;;4978260;28;20204;-65
2022/03/15 09:32:07;;;;;;;1.30;1.20;;;20.30;46.10;;;;;;4978917;28;20181;-66
2022/03/15 09:34:34;;;;;;;0.90;0.90;;;20.30;46.10;;;;;;4987018;28;20248;-65
2022/03/15 09:36:59;;;;;;;1.10;1.00;;;20.30;46.10;;;;;;4968026;28;20677;-66
2022/03/15 09:39:26;;;;;;;1.30;1.20;;;20.30;46.10;;;;;;4997369;28;20184;-66
2022/03/15 09:41:56;;;;;;;1.85;1.00;;;20.20;46.10;;;;;;4967424;28;20201;-65
2022/03/15 09:44:28;;;;;;;1.02;0.93;;;20.30;46.10;;;;;;4977634;28;20192;-66
2022/03/15 09:47:01;;;;;;;1.08;0.90;;;20.30;46.20;;;;;;4961387;28;20209;-66
2022/03/15 09:49:27;;;;;;;2.65;1.27;;;20.30;46.20;;;;;;4961957;28;20173;-67
2022/03/15 09:51:57;;;;;;;1.20;1.10;;;20.30;46.20;;;;;;4985846;28;20193;-66
2022/03/15 09:54:27;;;;;;;1.05;1.02;;;20.30;46.20;;;;;;5009211;28;20192;-66
2022/03/15 09:56:54;;;;;;;1.10;1.10;;;20.30;46.20;;;;;;4980569;28;20222;-66
2022/03/15 09:59:23;;;;;;;1.38;1.00;;;20.30;46.20;;;;;;5013541;28;20192;-67
2022/03/15 10:01:51;;;;;;;1.20;1.05;;;20.30;46.80;;;;;;4978656;28;20209;-66
2022/03/15 10:04:22;;;;;;;1.00;1.00;;;20.30;46.30;;;;;;4994477;28;20196;-65
2022/03/15 10:06:51;;;;;;;1.35;0.90;;;20.20;46.20;;;;;;4993657;28;20204;-65
2022/03/15 10:09:17;;;;;;;1.02;0.93;;;20.20;46.20;;;;;;4993784;28;20199;-66
2022/03/15 10:11:43;;;;;;;0.93;0.82;;;20.30;46.30;;;;;;4993506;28;20188;-66
2022/03/15 10:14:11;;;;;;;1.10;1.02;;;20.20;46.20;;;;;;4989744;28;20205;-65
2022/03/15 10:16:40;;;;;;;1.38;0.90;;;20.30;46.40;;;;;;4982081;28;20219;-66
2022/03/15 10:19:11;;;;;;;1.25;1.13;;;20.20;46.30;;;;;;4994537;28;20220;-66
2022/03/15 10:21:49;;;;;;;1.10;1.00;;;20.30;46.30;;;;;;4961292;28;20248;-66
2022/03/15 10:24:28;;;;;;;1.02;1.02;;;20.30;46.40;;;;;;4977160;28;20188;-65
2022/03/15 10:26:59;;;;;;;1.80;1.13;;;20.20;46.30;;;;;;4976571;28;20279;-66
2022/03/15 10:29:28;;;;;;;1.35;0.98;;;20.30;46.40;;;;;;4962982;28;20177;-66
2022/03/15 10:31:55;;;;;;;1.05;0.82;;;20.30;46.40;;;;;;4977663;28;20197;-66
2022/03/15 10:34:22;;;;;;;0.82;0.82;;;20.30;46.40;;;;;;4976578;28;20228;-67
2022/03/15 10:36:54;;;;;;;0.82;0.80;;;20.30;46.40;;;;;;4960856;28;20271;-65
2022/03/15 10:39:20;;;;;;;0.80;0.80;;;20.30;46.40;;;;;;4976851;28;20248;-65
2022/03/15 10:42:03;;;;;;;0.82;0.82;;;20.30;46.40;;;;;;4994055;28;20216;-66
2022/03/15 10:44:39;;;;;;;1.17;0.73;;;20.30;46.50;;;;;;4983193;28;20181;-66
2022/03/15 10:47:15;;;;;;;1.70;0.80;;;20.30;46.50;;;;;;4976318;28;20697;-66
2022/03/15 10:49:52;;;;;;;1.23;1.13;;;20.30;47.10;;;;;;4992043;28;20181;-66
2022/03/15 10:52:53;;;;;;;1.00;1.00;;;20.20;46.40;;;;;;4992661;28;20183;-66
2022/03/15 10:55:28;;;;;;;1.50;1.00;;;20.20;47.00;;;;;;4942138;28;20235;-66
2022/03/15 10:58:09;;;;;;;1.38;1.00;;;20.20;46.40;;;;;;4978370;28;20238;-65
2022/03/15 11:00:40;;;;;;;1.00;0.98;;;20.30;46.50;;;;;;4995692;28;20208;-66
2022/03/15 11:03:13;;;;;;;1.00;0.90;;;20.20;46.50;;;;;;4979926;28;20285;-66
2022/03/15 11:05:41;;;;;;;1.65;1.00;;;20.30;46.60;;;;;;4959827;28;20224;-66
2022/03/15 11:08:18;;;;;;;0.90;0.90;;;20.30;46.60;;;;;;4976072;28;20187;-66
2022/03/15 11:10:51;;;;;;;1.50;1.08;;;20.20;46.50;;;;;;4976165;28;20192;-65
2022/03/15 11:13:17;;;;;;;1.45;1.10;;;20.20;46.60;;;;;;4993176;28;20250;-66
2022/03/15 11:15:53;;;;;;;1.13;1.10;;;20.20;46.60;;;;;;4978161;28;20219;-67
2022/03/15 11:18:20;;;;;;;1.08;1.08;;;20.30;46.60;;;;;;4976352;28;20199;-64
2022/03/15 11:20:50;;;;;;;1.38;1.27;;;20.20;46.60;;;;;;4959844;28;20650;-67
2022/03/15 11:23:19;;;;;;;2.05;1.23;;;20.20;46.60;;;;;;4975717;28;20259;-66
2022/03/15 11:25:56;;;;;;;1.20;1.10;;;20.20;46.60;;;;;;4992805;28;20200;-65
2022/03/15 11:28:31;;;;;;;1.45;1.00;;;20.20;46.60;;;;;;4975584;28;20201;-64
2022/03/15 11:30:58;;;;;;;2.67;1.20;;;20.20;46.60;;;;;;4967592;28;20189;-65
2022/03/15 11:33:27;;;;;;;1.55;1.10;;;20.20;46.60;;;;;;4959632;28;20188;-66
2022/03/15 11:35:53;;;;;;;1.67;1.20;;;20.20;46.60;;;;;;4987392;28;20210;-66
2022/03/15 11:38:19;;;;;;;0.90;0.90;;;20.20;46.70;;;;;;5008704;28;20185;-66
2022/03/15 11:40:49;;;;;;;1.33;1.05;;;20.20;46.70;;;;;;4959756;28;20216;-66
2022/03/15 11:44:00;;;;;;;2.03;1.20;;;20.20;46.70;;;;;;4959509;28;20204;-66
2022/03/15 11:46:35;;;;;;;2.10;1.58;;;20.20;46.70;;;;;;4988121;28;20208;-64
2022/03/15 11:49:45;;;;;;;1.23;1.10;;;20.20;46.70;;;;;;4975937;28;20180;-66
2022/03/15 11:52:28;;;;;;;2.63;1.38;;;20.20;46.60;;;;;;4978402;28;20195;-67
2022/03/15 11:55:16;;;;;;;1.55;1.25;;;20.20;46.70;;;;;;4975815;28;20188;-66
2022/03/15 11:57:51;;;;;;;1.25;1.17;;;20.20;46.70;;;;;;4975811;28;20177;-64
2022/03/15 12:00:50;;;;;;;1.80;1.52;;;20.20;46.60;;;;;;4957062;28;20204;-66
2022/03/15 12:03:19;;;;;;;2.42;1.05;;;20.20;46.70;;;;;;4922569;28;20189;-66
2022/03/15 12:05:51;;;;;;;1.65;1.20;;;20.20;46.70;;;;;;4976860;28;20196;-66
2022/03/15 12:08:21;;;;;;;2.10;1.33;;;20.20;46.70;;;;;;4979420;28;20180;-66
2022/03/15 12:11:04;;;;;;;1.20;1.10;;;20.20;46.60;;;;;;4979846;28;20239;-66
2022/03/15 12:13:41;;;;;;;1.20;1.10;;;20.20;46.70;;;;;;4960238;28;20196;-66
2022/03/15 12:16:13;;;;;;;1.30;1.20;;;20.20;46.70;;;;;;4967867;28;20252;-66
2022/03/15 12:18:53;;;;;;;3.17;1.60;;;20.20;46.70;;;;;;4967163;28;20654;-66
2022/03/15 12:21:26;;;;;;;1.75;1.38;;;20.20;46.70;;;;;;4975648;28;20216;-66
2022/03/15 12:23:54;;;;;;;2.58;1.50;;;20.10;46.60;;;;;;4975497;28;20189;-65
2022/03/15 12:26:27;;;;;;;1.55;1.05;;;20.20;46.70;;;;;;4992199;28;20279;-66
2022/03/15 12:29:05;;;;;;;2.35;1.25;;;20.20;46.70;;;;;;4975463;28;20208;-66
2022/03/15 12:31:35;;;;;;;1.42;1.00;;;20.20;46.60;;;;;;4959082;28;20180;-65
2022/03/15 12:34:03;;;;;;;1.35;1.25;;;20.20;46.70;;;;;;4977458;28;20615;-65
2022/03/15 12:36:48;;;;;;;2.90;2.30;;;20.20;46.70;;;;;;4958652;28;20213;-65
2022/03/15 12:39:21;;;;;;;3.90;2.35;;;20.20;46.70;;;;;;5001302;28;20263;-66
2022/03/15 12:42:03;;;;;;;2.35;1.85;;;20.20;46.70;;;;;;4978484;28;20208;-66
2022/03/15 12:44:49;;;;;;;2.88;2.05;;;20.20;46.70;;;;;;4971006;28;20236;-66
2022/03/15 12:47:22;;;;;;;3.67;2.13;;;20.10;46.60;;;;;;4991874;23;20229;-67
2022/03/15 12:50:31;;;;;;;2.65;2.03;;;20.20;46.70;;;;;;4971230;28;20185;-68
2022/03/15 12:53:17;;;;;;;2.30;1.98;;;20.20;46.80;;;;;;4927563;29;20196;-67
2022/03/15 12:55:43;;;;;;;2.10;1.90;;;20.20;46.80;;;;;;4955476;28;20237;-67
2022/03/15 12:58:12;;;;;;;3.42;1.80;;;20.10;46.70;;;;;;4975274;28;20170;-67